Austin, TX (78703)

6:21 AM CDT on April 25, 2015 (GMT -0500)
West Austin | | Change Station
CLOSE
Current Station
Personal Weather Station
Location: Austin, TX
Elevation: 617 ft
Nearby Weather Stations
Active Advisory: Severe Thunderstorm Watch

Elev 617 ft 30.29 °N, 97.75 °W | Updated 5 minutes ago

Partly Cloudy
Partly Cloudy
72.5 °F
Feels Like 72.5 °F
N
0.0
Wind Variable Wind from South

Today
High -- | Low -- °F
--% Chance of Precip.
Yesterday
High -- | Low -- °F
Precip. -- in
6:53 AM 8:04 PM
Waxing Crescent, 45% visible
Pressure 29.80 in
Visibility 4.0 miles
Clouds Few 1800 ft
Few 9500 ft
Dew Point 72 °F
Humidity 99%
Rainfall 0.03 in
Snow Depth Not available.
UV 0 out of 12
Pollen 8.50 out of 12
Air Quality Not available.
Flu Activity Local Activity
SPECI KATT 251108Z AUTO 00000KT 4SM BR FEW018 FEW095 23/22 A2980 RMK AO2 TSE02 T02280217

More Conditions Fewer Conditions

Pressure 29.80 in
Visibility 4.0 miles
Clouds Few 1800 ft
Few 9500 ft
Dew Point 72 °F
Humidity 99%
Rainfall 0.03 in
Snow Depth Not available.
UV 0 out of 12
Pollen 8.50 out of 12
Air Quality Not available.
Flu Activity Local Activity
SPECI KATT 251108Z AUTO 00000KT 4SM BR FEW018 FEW095 23/22 A2980 RMK AO2 TSE02 T02280217

More Conditions Fewer Conditions

10-Day Weather Forecast

Almanac

Astronomy

Apr. 25, 2015 Rise Set
Actual Time
Civil Twilight
Nautical Twilight
Astronomical Twilight
Moon
Length of Visible Light
Length of Day
Tomorrow will be .
, % of the Moon is Illuminated

Today's Extremes

State Highs State Lows

Community

WunderPhotos

Upload Photos

1,816,639 photos uploaded!

WunderBlogs® & News

Nearby

Air Quality

  Air Quality AQ Index Pollutant
Not available.

Snow Depth

Station Depth Elevation

Earthquake Activity

City Distance Mag. Time & Date
Minimum magnitude displayed is 2.5.

Coastal Water Temperatures

Place Temperature

Stations

Nearby Weather Stations

Station Location Temp. Windchill Dew Point Humidity Wind Precip. Elev Updated Type
                   
Severe Thunderstorm Watch
Statement as of 5:24 AM CDT on April 25, 2015

Severe Thunderstorm Watch 107 remains in effect until 1000 am CDT
for the following locations


TX
. Texas counties included are

Atascosa Austin Bandera
Bastrop Bexar blanco
Burleson Caldwell Colorado
Comal DeWitt Edwards
Fayette frio Gillespie
Goliad Gonzales Guadalupe
Hays Jackson Karnes
Kendall Kerr Kinney
Lavaca Lee Maverick
Medina real Travis
Uvalde Val Verde Victoria
Washington Wharton Wilson
Zavala